sensor_id;sensor_type;location;lat;lon;timestamp;pressure;altitude;pressure_sealevel;temperature;humidity
76404;BME280;65232;48.358;2.122;2023-04-03T00:00:11;101882.00;;;7.28;77.49
76404;BME280;65232;48.358;2.122;2023-04-03T00:00:36;101888.25;;;7.27;77.39
76404;BME280;65232;48.358;2.122;2023-04-03T00:01:02;101884.13;;;7.39;77.12
76404;BME280;65232;48.358;2.122;2023-04-03T00:01:28;101889.25;;;7.42;77.06
76404;BME280;65232;48.358;2.122;2023-04-03T00:01:53;101882.47;;;7.36;77.23
76404;BME280;65232;48.358;2.122;2023-04-03T00:02:19;101884.91;;;7.24;77.93
76404;BME280;65232;48.358;2.122;2023-04-03T00:02:44;101895.06;;;7.33;77.81
76404;BME280;65232;48.358;2.122;2023-04-03T00:03:10;101889.81;;;7.31;77.33
76404;BME280;65232;48.358;2.122;2023-04-03T00:03:35;101883.78;;;7.28;77.22
76404;BME280;65232;48.358;2.122;2023-04-03T00:04:01;101889.22;;;7.26;77.27
76404;BME280;65232;48.358;2.122;2023-04-03T00:04:27;101880.13;;;7.30;77.34
76404;BME280;65232;48.358;2.122;2023-04-03T00:04:52;101892.75;;;7.27;77.21
76404;BME280;65232;48.358;2.122;2023-04-03T00:05:18;101883.19;;;7.23;77.26
76404;BME280;65232;48.358;2.122;2023-04-03T00:05:43;101892.56;;;7.30;77.46
76404;BME280;65232;48.358;2.122;2023-04-03T00:06:10;101890.84;;;7.29;77.30
76404;BME280;65232;48.358;2.122;2023-04-03T00:06:36;101894.06;;;7.35;76.88
76404;BME280;65232;48.358;2.122;2023-04-03T00:07:01;101885.59;;;7.27;77.01
76404;BME280;65232;48.358;2.122;2023-04-03T00:07:27;101881.69;;;7.34;77.12
76404;BME280;65232;48.358;2.122;2023-04-03T00:07:52;101890.69;;;7.49;76.92
76404;BME280;65232;48.358;2.122;2023-04-03T00:08:18;101891.84;;;7.43;76.57
76404;BME280;65232;48.358;2.122;2023-04-03T00:08:43;101887.56;;;7.41;76.32
76404;BME280;65232;48.358;2.122;2023-04-03T00:09:09;101887.09;;;7.33;76.01
76404;BME280;65232;48.358;2.122;2023-04-03T00:09:34;101887.66;;;7.39;75.90
76404;BME280;65232;48.358;2.122;2023-04-03T00:09:59;101886.94;;;7.36;76.08
76404;BME280;65232;48.358;2.122;2023-04-03T00:10:25;101880.66;;;7.37;76.35
76404;BME280;65232;48.358;2.122;2023-04-03T00:10:50;101884.03;;;7.40;76.36
76404;BME280;65232;48.358;2.122;2023-04-03T00:11:16;101888.75;;;7.35;76.50
76404;BME280;65232;48.358;2.122;2023-04-03T00:11:42;101878.00;;;7.37;76.76
76404;BME280;65232;48.358;2.122;2023-04-03T00:12:07;101885.91;;;7.38;76.72
76404;BME280;65232;48.358;2.122;2023-04-03T00:12:33;101885.44;;;7.30;76.58
76404;BME280;65232;48.358;2.122;2023-04-03T00:12:58;101886.63;;;7.25;76.47
76404;BME280;65232;48.358;2.122;2023-04-03T00:13:24;101885.53;;;7.29;76.47
76404;BME280;65232;48.358;2.122;2023-04-03T00:13:50;101888.44;;;7.24;76.41
76404;BME280;65232;48.358;2.122;2023-04-03T00:14:15;101887.56;;;7.24;76.57
76404;BME280;65232;48.358;2.122;2023-04-03T00:14:41;101889.22;;;7.26;76.06
76404;BME280;65232;48.358;2.122;2023-04-03T00:15:07;101884.44;;;7.16;76.30
76404;BME280;65232;48.358;2.122;2023-04-03T00:15:33;101889.53;;;7.20;76.42
76404;BME280;65232;48.358;2.122;2023-04-03T00:16:00;101882.56;;;7.18;76.16
76404;BME280;65232;48.358;2.122;2023-04-03T00:16:25;101892.56;;;7.13;76.06
76404;BME280;65232;48.358;2.122;2023-04-03T00:16:51;101891.72;;;7.12;76.65
76404;BME280;65232;48.358;2.122;2023-04-03T00:17:16;101887.94;;;7.16;76.21
76404;BME280;65232;48.358;2.122;2023-04-03T00:17:41;101881.84;;;7.14;76.26
76404;BME280;65232;48.358;2.122;2023-04-03T00:18:07;101891.63;;;7.14;76.26
76404;BME280;65232;48.358;2.122;2023-04-03T00:18:33;101887.88;;;7.18;76.60
76404;BME280;65232;48.358;2.122;2023-04-03T00:18:58;101890.38;;;7.21;76.47
76404;BME280;65232;48.358;2.122;2023-04-03T00:19:24;101893.75;;;7.24;76.26
76404;BME280;65232;48.358;2.122;2023-04-03T00:19:49;101887.50;;;7.25;76.14
76404;BME280;65232;48.358;2.122;2023-04-03T00:20:15;101891.97;;;7.25;75.99
76404;BME280;65232;48.358;2.122;2023-04-03T00:20:40;101890.25;;;7.24;75.92
76404;BME280;65232;48.358;2.122;2023-04-03T00:21:07;101889.44;;;7.22;75.66
76404;BME280;65232;48.358;2.122;2023-04-03T00:21:33;101888.75;;;7.18;75.38
76404;BME280;65232;48.358;2.122;2023-04-03T00:21:58;101889.22;;;7.09;75.78
76404;BME280;65232;48.358;2.122;2023-04-03T00:22:24;101889.06;;;7.12;75.82
76404;BME280;65232;48.358;2.122;2023-04-03T00:22:51;101889.81;;;7.14;76.49
76404;BME280;65232;48.358;2.122;2023-04-03T00:23:17;101886.31;;;7.14;76.10
76404;BME280;65232;48.358;2.122;2023-04-03T00:23:42;101890.88;;;7.12;75.82
76404;BME280;65232;48.358;2.122;2023-04-03T00:24:08;101888.03;;;7.15;75.97
76404;BME280;65232;48.358;2.122;2023-04-03T00:24:33;101888.22;;;7.12;76.25
76404;BME280;65232;48.358;2.122;2023-04-03T00:24:59;101893.44;;;7.13;76.05
76404;BME280;65232;48.358;2.122;2023-04-03T00:25:24;101896.19;;;7.12;75.85
76404;BME280;65232;48.358;2.122;2023-04-03T00:25:50;101896.94;;;7.14;75.77
76404;BME280;65232;48.358;2.122;2023-04-03T00:26:16;101889.59;;;7.19;75.69
76404;BME280;65232;48.358;2.122;2023-04-03T00:26:41;101892.34;;;7.17;75.61
76404;BME280;65232;48.358;2.122;2023-04-03T00:27:07;101890.38;;;7.21;75.61
76404;BME280;65232;48.358;2.122;2023-04-03T00:27:32;101894.78;;;7.22;75.77
76404;BME280;65232;48.358;2.122;2023-04-03T00:27:58;101894.78;;;7.22;75.95
76404;BME280;65232;48.358;2.122;2023-04-03T00:28:23;101897.75;;;7.16;75.92
76404;BME280;65232;48.358;2.122;2023-04-03T00:28:49;101897.88;;;7.13;75.61
76404;BME280;65232;48.358;2.122;2023-04-03T00:29:15;101889.75;;;7.16;75.30
76404;BME280;65232;48.358;2.122;2023-04-03T00:29:40;101882.63;;;7.16;75.46
76404;BME280;65232;48.358;2.122;2023-04-03T00:30:08;101895.72;;;7.21;75.58
76404;BME280;65232;48.358;2.122;2023-04-03T00:30:35;101891.88;;;7.26;75.46
76404;BME280;65232;48.358;2.122;2023-04-03T00:31:00;101892.56;;;7.30;75.66
76404;BME280;65232;48.358;2.122;2023-04-03T00:31:26;101896.16;;;7.29;75.63
76404;BME280;65232;48.358;2.122;2023-04-03T00:31:52;101893.34;;;7.32;75.38
76404;BME280;65232;48.358;2.122;2023-04-03T00:32:18;101897.09;;;7.28;75.23
76404;BME280;65232;48.358;2.122;2023-04-03T00:32:43;101882.78;;;7.30;75.23
76404;BME280;65232;48.358;2.122;2023-04-03T00:33:12;101893.91;;;7.21;75.64
76404;BME280;65232;48.358;2.122;2023-04-03T00:33:38;101887.72;;;7.21;75.59
76404;BME280;65232;48.358;2.122;2023-04-03T00:34:03;101885.06;;;7.21;75.61
76404;BME280;65232;48.358;2.122;2023-04-03T00:34:29;101888.66;;;7.20;75.41
76404;BME280;65232;48.358;2.122;2023-04-03T00:34:54;101893.13;;;7.19;75.49
76404;BME280;65232;48.358;2.122;2023-04-03T00:35:21;101897.59;;;7.19;75.94
76404;BME280;65232;48.358;2.122;2023-04-03T00:35:47;101893.28;;;7.16;75.84
76404;BME280;65232;48.358;2.122;2023-04-03T00:36:13;101891.31;;;7.20;75.78
76404;BME280;65232;48.358;2.122;2023-04-03T00:36:39;101875.34;;;7.20;76.01
76404;BME280;65232;48.358;2.122;2023-04-03T00:37:04;101883.41;;;7.18;75.85
76404;BME280;65232;48.358;2.122;2023-04-03T00:37:30;101883.97;;;7.25;76.09
76404;BME280;65232;48.358;2.122;2023-04-03T00:37:56;101883.25;;;7.21;76.02
76404;BME280;65232;48.358;2.122;2023-04-03T00:38:21;101886.94;;;7.19;76.37
76404;BME280;65232;48.358;2.122;2023-04-03T00:38:47;101885.69;;;7.26;76.06
76404;BME280;65232;48.358;2.122;2023-04-03T00:39:12;101883.34;;;7.20;75.57
76404;BME280;65232;48.358;2.122;2023-04-03T00:39:37;101881.25;;;7.26;75.98
76404;BME280;65232;48.358;2.122;2023-04-03T00:40:03;101882.31;;;7.22;75.45
76404;BME280;65232;48.358;2.122;2023-04-03T00:40:32;101884.50;;;7.14;75.79
76404;BME280;65232;48.358;2.122;2023-04-03T00:40:58;101885.53;;;7.29;75.50
76404;BME280;65232;48.358;2.122;2023-04-03T00:41:24;101876.94;;;7.24;75.41
76404;BME280;65232;48.358;2.122;2023-04-03T00:41:50;101879.59;;;7.24;75.86
76404;BME280;65232;48.358;2.122;2023-04-03T00:42:16;101882.09;;;7.27;75.69
76404;BME280;65232;48.358;2.122;2023-04-03T00:42:43;101887.25;;;7.30;76.06
76404;BME280;65232;48.358;2.122;2023-04-03T00:43:12;101879.25;;;7.30;76.32
76404;BME280;65232;48.358;2.122;2023-04-03T00:43:38;101877.47;;;7.30;76.32
76404;BME280;65232;48.358;2.122;2023-04-03T00:45:38;101882.63;;;7.33;75.55
76404;BME280;65232;48.358;2.122;2023-04-03T00:46:04;101880.66;;;7.37;75.34
76404;BME280;65232;48.358;2.122;2023-04-03T00:46:29;101874.50;;;7.36;75.41
76404;BME280;65232;48.358;2.122;2023-04-03T00:46:55;101883.41;;;7.35;75.03
76404;BME280;65232;48.358;2.122;2023-04-03T00:47:21;101875.28;;;7.38;75.13
76404;BME280;65232;48.358;2.122;2023-04-03T00:47:47;101878.53;;;7.43;75.04
76404;BME280;65232;48.358;2.122;2023-04-03T00:48:19;101882.47;;;7.36;74.98
76404;BME280;65232;48.358;2.122;2023-04-03T00:48:47;101878.25;;;7.32;74.95
76404;BME280;65232;48.358;2.122;2023-04-03T00:49:13;101879.81;;;7.36;74.85
76404;BME280;65232;48.358;2.122;2023-04-03T00:49:39;101882.69;;;7.32;74.29
76404;BME280;65232;48.358;2.122;2023-04-03T00:50:06;101879.50;;;7.25;74.59
76404;BME280;65232;48.358;2.122;2023-04-03T00:50:35;101877.72;;;7.26;74.82
76404;BME280;65232;48.358;2.122;2023-04-03T00:51:03;101875.91;;;7.26;74.64
76404;BME280;65232;48.358;2.122;2023-04-03T00:51:31;101877.53;;;7.29;75.04
76404;BME280;65232;48.358;2.122;2023-04-03T00:51:57;101872.38;;;7.26;75.09
76404;BME280;65232;48.358;2.122;2023-04-03T00:52:27;101878.16;;;7.34;74.95
76404;BME280;65232;48.358;2.122;2023-04-03T00:52:53;101878.53;;;7.43;74.62
76404;BME280;65232;48.358;2.122;2023-04-03T00:53:23;101879.88;;;7.35;74.98
76404;BME280;65232;48.358;2.122;2023-04-03T00:53:55;101882.78;;;7.30;75.83
76404;BME280;65232;48.358;2.122;2023-04-03T00:54:23;101879.03;;;7.34;75.45
76404;BME280;65232;48.358;2.122;2023-04-03T00:54:51;101881.38;;;7.23;75.13
76404;BME280;65232;48.358;2.122;2023-04-03T00:55:17;101877.59;;;7.27;75.52
76404;BME280;65232;48.358;2.122;2023-04-03T00:55:43;101878.56;;;7.26;75.22
76404;BME280;65232;48.358;2.122;2023-04-03T00:56:11;101875.72;;;7.29;75.25
76404;BME280;65232;48.358;2.122;2023-04-03T00:56:38;101873.63;;;7.36;75.34
76404;BME280;65232;48.358;2.122;2023-04-03T00:57:05;101873.47;;;7.39;74.99
76404;BME280;65232;48.358;2.122;2023-04-03T00:57:32;101876.91;;;7.41;75.00
76404;BME280;65232;48.358;2.122;2023-04-03T00:57:58;101871.59;;;7.41;74.95
76404;BME280;65232;48.358;2.122;2023-04-03T00:58:32;101873.41;;;7.40;74.99
76404;BME280;65232;48.358;2.122;2023-04-03T00:59:04;101877.22;;;7.35;75.20
76404;BME280;65232;48.358;2.122;2023-04-03T00:59:32;101874.63;;;7.33;75.19
76404;BME280;65232;48.358;2.122;2023-04-03T01:00:03;101881.75;;;7.33;75.22
76404;BME280;65232;48.358;2.122;2023-04-03T01:00:30;101869.25;;;7.35;75.09
76404;BME280;65232;48.358;2.122;2023-04-03T01:00:58;101879.47;;;7.42;75.03
76404;BME280;65232;48.358;2.122;2023-04-03T01:01:26;101871.31;;;7.46;74.44
76404;BME280;65232;48.358;2.122;2023-04-03T01:01:53;101873.13;;;7.45;74.49
76404;BME280;65232;48.358;2.122;2023-04-03T01:02:22;101866.72;;;7.49;74.35
76404;BME280;65232;48.358;2.122;2023-04-03T01:02:49;101869.59;;;7.44;74.77
76404;BME280;65232;48.358;2.122;2023-04-03T01:03:15;101875.19;;;7.40;74.66
76404;BME280;65232;48.358;2.122;2023-04-03T01:03:40;101875.28;;;7.38;74.72
76404;BME280;65232;48.358;2.122;2023-04-03T01:04:29;101871.47;;;7.42;74.43
76404;BME280;65232;48.358;2.122;2023-04-03T01:04:56;101874.00;;;7.46;74.58
76404;BME280;65232;48.358;2.122;2023-04-03T01:05:22;101873.59;;;7.53;74.64
76404;BME280;65232;48.358;2.122;2023-04-03T01:05:47;101869.53;;;7.46;74.18
76404;BME280;65232;48.358;2.122;2023-04-03T01:06:16;101870.09;;;7.35;74.63
76404;BME280;65232;48.358;2.122;2023-04-03T01:06:42;101867.97;;;7.42;74.64
76404;BME280;65232;48.358;2.122;2023-04-03T01:07:38;101864.84;;;7.34;75.01
76404;BME280;65232;48.358;2.122;2023-04-03T01:08:04;101871.25;;;7.30;75.06
76404;BME280;65232;48.358;2.122;2023-04-03T01:08:30;101866.03;;;7.28;75.28
76404;BME280;65232;48.358;2.122;2023-04-03T01:08:56;101875.91;;;7.26;75.63
76404;BME280;65232;48.358;2.122;2023-04-03T01:09:22;101866.03;;;7.28;75.52
76404;BME280;65232;48.358;2.122;2023-04-03T01:09:51;101866.88;;;7.29;75.37
76404;BME280;65232;48.358;2.122;2023-04-03T01:10:18;101861.75;;;7.26;75.46
76404;BME280;65232;48.358;2.122;2023-04-03T01:10:46;101867.38;;;7.20;75.44
76404;BME280;65232;48.358;2.122;2023-04-03T01:11:12;101865.66;;;7.19;75.76
76404;BME280;65232;48.358;2.122;2023-04-03T01:11:38;101868.09;;;7.23;75.84
76404;BME280;65232;48.358;2.122;2023-04-03T01:12:28;101869.63;;;7.27;75.92
76404;BME280;65232;48.358;2.122;2023-04-03T01:12:54;101870.97;;;7.36;75.77
76404;BME280;65232;48.358;2.122;2023-04-03T01:13:26;101865.50;;;7.22;75.22
76404;BME280;65232;48.358;2.122;2023-04-03T01:13:52;101860.81;;;7.27;75.35
76404;BME280;65232;48.358;2.122;2023-04-03T01:14:17;101862.50;;;7.28;75.40
76404;BME280;65232;48.358;2.122;2023-04-03T01:14:44;101864.94;;;7.32;75.59
76404;BME280;65232;48.358;2.122;2023-04-03T01:15:19;101865.56;;;7.37;75.44
76404;BME280;65232;48.358;2.122;2023-04-03T01:15:45;101865.41;;;7.40;75.50
76404;BME280;65232;48.358;2.122;2023-04-03T01:16:10;101861.16;;;7.36;75.38
76404;BME280;65232;48.358;2.122;2023-04-03T01:16:36;101863.91;;;7.35;75.39
76404;BME280;65232;48.358;2.122;2023-04-03T01:17:01;101860.38;;;7.34;75.01
76404;BME280;65232;48.358;2.122;2023-04-03T01:17:39;101862.97;;;7.36;75.28
76404;BME280;65232;48.358;2.122;2023-04-03T01:18:05;101859.44;;;7.35;75.53
76404;BME280;65232;48.358;2.122;2023-04-03T01:18:31;101858.13;;;7.27;75.41
76404;BME280;65232;48.358;2.122;2023-04-03T01:18:58;101861.31;;;7.33;75.03
76404;BME280;65232;48.358;2.122;2023-04-03T01:19:25;101860.31;;;7.36;74.80
76404;BME280;65232;48.358;2.122;2023-04-03T01:22:30;101857.34;;;7.25;75.83
76404;BME280;65232;48.358;2.122;2023-04-03T01:23:46;101860.69;;;7.28;75.95
76404;BME280;65232;48.358;2.122;2023-04-03T01:24:54;101851.69;;;7.14;76.08
76404;BME280;65232;48.358;2.122;2023-04-03T01:25:19;101861.59;;;7.12;76.15
76404;BME280;65232;48.358;2.122;2023-04-03T01:25:48;101856.41;;;7.08;76.47
76404;BME280;65232;48.358;2.122;2023-04-03T01:26:14;101858.06;;;7.11;76.39
76404;BME280;65232;48.358;2.122;2023-04-03T01:26:39;101855.22;;;7.14;76.47
76404;BME280;65232;48.358;2.122;2023-04-03T01:27:06;101855.06;;;7.17;76.26
76404;BME280;65232;48.358;2.122;2023-04-03T01:27:34;101853.97;;;7.21;76.26
76404;BME280;65232;48.358;2.122;2023-04-03T01:27:59;101851.31;;;7.21;76.20
76404;BME280;65232;48.358;2.122;2023-04-03T01:28:33;101859.53;;;7.17;75.95
76404;BME280;65232;48.358;2.122;2023-04-03T01:28:59;101861.81;;;7.24;75.99
76404;BME280;65232;48.358;2.122;2023-04-03T01:29:25;101857.34;;;7.25;76.02
76404;BME280;65232;48.358;2.122;2023-04-03T01:29:51;101857.81;;;7.16;75.80
76404;BME280;65232;48.358;2.122;2023-04-03T01:30:18;101850.69;;;7.16;76.01
76404;BME280;65232;48.358;2.122;2023-04-03T01:32:14;101850.31;;;7.24;75.73
76404;BME280;65232;48.358;2.122;2023-04-03T01:32:41;101852.09;;;7.23;75.83
76404;BME280;65232;48.358;2.122;2023-04-03T01:33:06;101852.34;;;7.19;76.01
76404;BME280;65232;48.358;2.122;2023-04-03T01:33:32;101851.19;;;7.07;76.47
76404;BME280;65232;48.358;2.122;2023-04-03T01:33:58;101856.50;;;7.07;76.15
76404;BME280;65232;48.358;2.122;2023-04-03T01:34:24;101850.31;;;7.06;76.43
76404;BME280;65232;48.358;2.122;2023-04-03T01:34:50;101859.53;;;7.17;76.01
76404;BME280;65232;48.358;2.122;2023-04-03T01:35:15;101851.19;;;7.07;75.95
76404;BME280;65232;48.358;2.122;2023-04-03T01:35:41;101857.34;;;7.07;76.47
76404;BME280;65232;48.358;2.122;2023-04-03T01:36:06;101857.81;;;6.98;76.64
76404;BME280;65232;48.358;2.122;2023-04-03T01:36:32;101852.47;;;6.98;76.67
76404;BME280;65232;48.358;2.122;2023-04-03T01:36:58;101854.06;;;7.02;76.31
76404;BME280;65232;48.358;2.122;2023-04-03T01:37:23;101856.25;;;6.94;76.59
76404;BME280;65232;48.358;2.122;2023-04-03T01:37:49;101852.88;;;6.91;76.55
76404;BME280;65232;48.358;2.122;2023-04-03T01:38:14;101857.44;;;6.89;76.57
76404;BME280;65232;48.358;2.122;2023-04-03T01:38:41;101847.78;;;6.86;76.89
76404;BME280;65232;48.358;2.122;2023-04-03T01:39:06;101848.72;;;6.85;76.81
76404;BME280;65232;48.358;2.122;2023-04-03T01:39:32;101860.31;;;6.84;77.05
76404;BME280;65232;48.358;2.122;2023-04-03T01:39:58;101856.72;;;6.85;77.12
76404;BME280;65232;48.358;2.122;2023-04-03T01:40:24;101849.75;;;6.83;77.24
76404;BME280;65232;48.358;2.122;2023-04-03T01:40:50;101854.03;;;6.85;77.15
76404;BME280;65232;48.358;2.122;2023-04-03T01:41:16;101849.19;;;6.76;77.34
76404;BME280;65232;48.358;2.122;2023-04-03T01:41:43;101847.56;;;6.73;77.85
76404;BME280;65232;48.358;2.122;2023-04-03T01:42:17;101853.66;;;6.76;77.77
76404;BME280;65232;48.358;2.122;2023-04-03T01:42:43;101848.28;;;6.77;77.76
76404;BME280;65232;48.358;2.122;2023-04-03T01:43:08;101849.75;;;6.83;77.84
76404;BME280;65232;48.358;2.122;2023-04-03T01:43:34;101848.19;;;6.79;77.69
76404;BME280;65232;48.358;2.122;2023-04-03T01:43:59;101851.78;;;6.78;77.75
76404;BME280;65232;48.358;2.122;2023-04-03T01:44:25;101854.13;;;6.84;77.81
76404;BME280;65232;48.358;2.122;2023-04-03T01:44:51;101841.38;;;6.90;77.50
76404;BME280;65232;48.358;2.122;2023-04-03T01:45:16;101851.03;;;6.93;77.36
76404;BME280;65232;48.358;2.122;2023-04-03T01:45:41;101850.94;;;6.94;77.37
76404;BME280;65232;48.358;2.122;2023-04-03T01:46:07;101852.09;;;6.89;77.36
76404;BME280;65232;48.358;2.122;2023-04-03T01:46:33;101849.06;;;6.96;77.30
76404;BME280;65232;48.358;2.122;2023-04-03T01:46:58;101850.78;;;6.97;77.19
76404;BME280;65232;48.358;2.122;2023-04-03T01:47:25;101843.34;;;6.87;77.51
76404;BME280;65232;48.358;2.122;2023-04-03T01:47:51;101859.06;;;6.91;77.42
76404;BME280;65232;48.358;2.122;2023-04-03T01:48:16;101851.38;;;6.85;77.89
76404;BME280;65232;48.358;2.122;2023-04-03T01:48:42;101846.72;;;6.90;77.71
76404;BME280;65232;48.358;2.122;2023-04-03T01:49:09;101860.09;;;6.89;78.00
76404;BME280;65232;48.358;2.122;2023-04-03T01:49:35;101858.38;;;6.88;78.00
76404;BME280;65232;48.358;2.122;2023-04-03T01:50:00;101853.03;;;6.88;77.79
76404;BME280;65232;48.358;2.122;2023-04-03T01:50:28;101855.06;;;6.83;77.48
76404;BME280;65232;48.358;2.122;2023-04-03T01:50:54;101851.38;;;6.85;77.47
76404;BME280;65232;48.358;2.122;2023-04-03T01:51:19;101854.13;;;6.84;77.79
76404;BME280;65232;48.358;2.122;2023-04-03T01:51:45;101849.50;;;6.87;77.80
76404;BME280;65232;48.358;2.122;2023-04-03T01:52:10;101858.59;;;6.83;77.96
76404;BME280;65232;48.358;2.122;2023-04-03T01:52:36;101856.63;;;6.87;77.78
76404;BME280;65232;48.358;2.122;2023-04-03T01:53:01;101852.81;;;6.92;77.48
76404;BME280;65232;48.358;2.122;2023-04-03T01:53:27;101854.22;;;6.99;77.61
76404;BME280;65232;48.358;2.122;2023-04-03T01:53:52;101853.47;;;6.97;77.88
76404;BME280;65232;48.358;2.122;2023-04-03T01:54:18;101851.63;;;6.98;77.93
76404;BME280;65232;48.358;2.122;2023-04-03T01:54:44;101850.63;;;7.00;78.07
76404;BME280;65232;48.358;2.122;2023-04-03T01:55:09;101855.06;;;7.00;77.79
76404;BME280;65232;48.358;2.122;2023-04-03T01:55:35;101850.47;;;7.03;77.69
76404;BME280;65232;48.358;2.122;2023-04-03T01:56:01;101854.06;;;7.02;77.60
76404;BME280;65232;48.358;2.122;2023-04-03T01:56:26;101859.72;;;6.96;77.98
76404;BME280;65232;48.358;2.122;2023-04-03T01:56:52;101858.94;;;6.94;77.79
76404;BME280;65232;48.358;2.122;2023-04-03T01:57:18;101848.28;;;6.94;77.75
76404;BME280;65232;48.358;2.122;2023-04-03T01:57:44;101858.13;;;6.92;77.60
76404;BME280;65232;48.358;2.122;2023-04-03T01:58:09;101852.81;;;6.92;77.50
76404;BME280;65232;48.358;2.122;2023-04-03T01:58:35;101856.94;;;6.98;77.56
76404;BME280;65232;48.358;2.122;2023-04-03T01:59:01;101852.34;;;7.01;77.57
76404;BME280;65232;48.358;2.122;2023-04-03T01:59:26;101858.13;;;6.92;77.55
76404;BME280;65232;48.358;2.122;2023-04-03T01:59:52;101860.66;;;6.95;77.86
76404;BME280;65232;48.358;2.122;2023-04-03T02:00:17;101857.06;;;6.96;77.87
76404;BME280;65232;48.358;2.122;2023-04-03T02:00:43;101859.78;;;6.95;77.90
76404;BME280;65232;48.358;2.122;2023-04-03T02:01:09;101860.66;;;6.95;78.01
76404;BME280;65232;48.358;2.122;2023-04-03T02:01:34;101859.53;;;6.99;77.83
76404;BME280;65232;48.358;2.122;2023-04-03T02:02:00;101855.63;;;6.89;77.72
76404;BME280;65232;48.358;2.122;2023-04-03T02:02:25;101853.91;;;6.88;77.56
76404;BME280;65232;48.358;2.122;2023-04-03T02:02:51;101858.22;;;6.91;77.94
76404;BME280;65232;48.358;2.122;2023-04-03T02:03:16;101859.16;;;6.90;77.83
76404;BME280;65232;48.358;2.122;2023-04-03T02:03:42;101863.03;;;6.83;77.74
76404;BME280;65232;48.358;2.122;2023-04-03T02:04:07;101863.44;;;6.75;77.95
76404;BME280;65232;48.358;2.122;2023-04-03T02:04:33;101854.44;;;6.78;77.72
76404;BME280;65232;48.358;2.122;2023-04-03T02:04:58;101857.66;;;6.84;77.73
76404;BME280;65232;48.358;2.122;2023-04-03T02:05:24;101850.44;;;6.86;77.99
76404;BME280;65232;48.358;2.122;2023-04-03T02:05:49;101848.59;;;6.88;78.14
76404;BME280;65232;48.358;2.122;2023-04-03T02:06:15;101851.72;;;6.79;78.15
76404;BME280;65232;48.358;2.122;2023-04-03T02:06:40;101845.59;;;6.77;78.40
76404;BME280;65232;48.358;2.122;2023-04-03T02:07:06;101855.38;;;6.77;78.66
76404;BME280;65232;48.358;2.122;2023-04-03T02:07:32;101849.84;;;6.81;78.22
76404;BME280;65232;48.358;2.122;2023-04-03T02:07:58;101856.88;;;6.82;78.00
76404;BME280;65232;48.358;2.122;2023-04-03T02:08:23;101855.06;;;6.83;78.32
76404;BME280;65232;48.358;2.122;2023-04-03T02:08:48;101854.75;;;6.89;78.19
76404;BME280;65232;48.358;2.122;2023-04-03T02:09:14;101851.25;;;6.88;78.07
76404;BME280;65232;48.358;2.122;2023-04-03T02:09:40;101857.72;;;6.83;78.33
76404;BME280;65232;48.358;2.122;2023-04-03T02:10:06;101854.75;;;6.89;78.23
76404;BME280;65232;48.358;2.122;2023-04-03T02:10:32;101852.03;;;6.90;78.30
76404;BME280;65232;48.358;2.122;2023-04-03T02:10:57;101851.97;;;6.92;78.20
76404;BME280;65232;48.358;2.122;2023-04-03T02:11:22;101852.03;;;6.90;77.80
76404;BME280;65232;48.358;2.122;2023-04-03T02:11:48;101851.97;;;6.92;78.06
76404;BME280;65232;48.358;2.122;2023-04-03T02:12:13;101850.78;;;6.97;77.81
76404;BME280;65232;48.358;2.122;2023-04-03T02:12:39;101852.81;;;6.92;78.17
76404;BME280;65232;48.358;2.122;2023-04-03T02:13:04;101860.66;;;6.95;78.23
76404;BME280;65232;48.358;2.122;2023-04-03T02:13:30;101853.53;;;6.96;78.19
76404;BME280;65232;48.358;2.122;2023-04-03T02:13:55;101855.63;;;6.89;78.23
76404;BME280;65232;48.358;2.122;2023-04-03T02:14:21;101854.66;;;6.73;78.19
76404;BME280;65232;48.358;2.122;2023-04-03T02:14:48;101856.69;;;6.68;78.48
76404;BME280;65232;48.358;2.122;2023-04-03T02:15:14;101858.25;;;6.72;78.85
76404;BME280;65232;48.358;2.122;2023-04-03T02:15:40;101853.72;;;6.74;78.73
76404;BME280;65232;48.358;2.122;2023-04-03T02:16:07;101851.00;;;6.76;79.14
76404;BME280;65232;48.358;2.122;2023-04-03T02:16:33;101856.19;;;6.79;79.02
76404;BME280;65232;48.358;2.122;2023-04-03T02:17:00;101852.41;;;6.83;79.17
76404;BME280;65232;48.358;2.122;2023-04-03T02:17:26;101856.97;;;6.81;79.04
76404;BME280;65232;48.358;2.122;2023-04-03T02:17:54;101855.69;;;6.88;78.59
76404;BME280;65232;48.358;2.122;2023-04-03T02:18:19;101857.34;;;6.90;78.68
76404;BME280;65232;48.358;2.122;2023-04-03T02:18:45;101858.00;;;6.95;78.58
76404;BME280;65232;48.358;2.122;2023-04-03T02:19:10;101854.53;;;6.93;78.30
76404;BME280;65232;48.358;2.122;2023-04-03T02:19:36;101855.47;;;6.92;78.17
76404;BME280;65232;48.358;2.122;2023-04-03T02:20:02;101853.81;;;6.90;78.49
76404;BME280;65232;48.358;2.122;2023-04-03T02:20:28;101851.38;;;6.85;78.58
76404;BME280;65232;48.358;2.122;2023-04-03T02:20:53;101858.28;;;6.89;78.82
76404;BME280;65232;48.358;2.122;2023-04-03T02:21:19;101849.75;;;6.83;78.44
76404;BME280;65232;48.358;2.122;2023-04-03T02:21:44;101859.00;;;6.93;78.35
76404;BME280;65232;48.358;2.122;2023-04-03T02:22:10;101854.38;;;6.96;78.20
76404;BME280;65232;48.358;2.122;2023-04-03T02:22:36;101854.97;;;6.84;78.38
76404;BME280;65232;48.358;2.122;2023-04-03T02:23:01;101854.97;;;6.84;78.36
76404;BME280;65232;48.358;2.122;2023-04-03T02:23:27;101852.31;;;6.84;78.85
76404;BME280;65232;48.358;2.122;2023-04-03T02:23:53;101854.97;;;6.84;78.87
76404;BME280;65232;48.358;2.122;2023-04-03T02:24:18;101859.63;;;6.81;78.70
76404;BME280;65232;48.358;2.122;2023-04-03T02:24:44;101854.38;;;6.79;78.47
76404;BME280;65232;48.358;2.122;2023-04-03T02:25:09;101853.97;;;6.87;78.61
76404;BME280;65232;48.358;2.122;2023-04-03T02:25:35;101859.63;;;6.81;78.79
76404;BME280;65232;48.358;2.122;2023-04-03T02:26:06;101860.50;;;6.81;78.63
76404;BME280;65232;48.358;2.122;2023-04-03T02:26:32;101860.78;;;6.75;78.50
76404;BME280;65232;48.358;2.122;2023-04-03T02:26:57;101853.44;;;6.80;78.64
76404;BME280;65232;48.358;2.122;2023-04-03T02:27:23;101860.50;;;6.81;78.75